x

9444090 - Port Angeles, Wa (ptaw1) Weather Station

11:36pm - Wed 18th Jan 2017 All times are PST. -8 hours from GMT.

  • Wind
    2mph, 3mph gusts
  • Sea Temp 46°f
  • Air Temp 44°f
  • Sea Pressure 991.1mb
  • 9444090 - Port Angeles, Wa
  • 9444090 - Port Angeles, Wa

More Historic Weather Station data

Upgrade to MSW Pro to gain access to the past 30 days of data for over 8000 Wavebouys and Weather Stations around the globe.

Join Pro

Comparision Forecast

View Surf forecast
   
Wed 01/18 11:36pm 2 3 mph 991.1mb 46f 44f
11:30pm 5
mph
991.1mb 46f 44f
11:24pm 2 6 mph 991.1mb 46f 45f
11:18pm 3 10 mph 991mb 46f 45f
11:12pm 6 10 mph 990.9mb 46f 46f
11:06pm 6 8 mph 990.9mb 46f 46f
11:00pm 3 10 mph 990.9mb 46f 46f
10:36pm 11 14 mph 990.6mb 46f 46f
10:30pm 9 11 mph 990.4mb 46f 46f
10:24pm 9 14 mph 990.4mb 46f 46f
10:18pm 10 13 mph 990.3mb 46f 46f
10:12pm 8 13 mph 990.1mb 46f 46f
10:06pm 6 11 mph 990mb 46f 46f
10:00pm 8 11 mph 989.9mb 46f 46f
9:36pm 5 9 mph 989.5mb 46f 46f
9:30pm 5 8 mph 989.4mb 46f 46f
9:24pm 6 8 mph 989.4mb 46f 46f
9:18pm 5 7 mph 989.3mb 46f 46f
9:12pm 6
mph
989.3mb 46f 46f
9:06pm 5 6 mph 989.2mb 46f 46f
9:00pm 5 7 mph 989.1mb 46f 46f
8:36pm 6 9 mph 989mb 46f 46f
8:30pm 5 10 mph 989mb 46f 46f
8:24pm 7 13 mph 988.9mb 46f 46f
8:18pm 5 8 mph 988.9mb 46f 46f
8:12pm 6 9 mph 988.8mb 46f 46f
8:06pm 8 10 mph 988.8mb 46f 46f
8:00pm 3 5 mph 988.8mb 46f 47f
7:36pm 5 6 mph 988.7mb 46f 46f
7:30pm 3 6 mph 988.8mb 46f 47f
7:24pm 3
mph
988.8mb 46f 46f
7:18pm 2 3 mph 988.9mb 46f 46f
7:12pm 2
mph
988.9mb 46f 46f
7:06pm 3
mph
988.8mb 46f 46f
7:00pm 1 2 mph 988.8mb 46f 47f
6:36pm 2 3 mph 988.7mb 46f 46f
6:30pm 2 3 mph 988.8mb 46f 46f
6:24pm 3
mph
988.9mb 46f 47f
6:18pm 2 6 mph 988.9mb 46f 47f
6:12pm 5 7 mph 988.9mb 46f 47f
6:06pm 5 8 mph 988.9mb 46f 47f
6:00pm 7 9 mph 988.9mb 46f 47f
5:36pm 6 8 mph 989mb 46f 47f
5:30pm 7 8 mph 989.2mb 46f 47f
5:24pm 2 5 mph 989.3mb 46f 47f
5:18pm 2 5 mph 989.2mb 46f 47f
5:12pm  -  1 mph 989.2mb 46f 48f
5:06pm  -  2 mph 989.3mb 46f 47f
5:00pm 2 3 mph 989.4mb 46f 47f
4:36pm  -  mph 989.6mb 46f 48f
4:30pm 1 3 mph 989.8mb 46f 48f
4:24pm 3
mph
990mb 46f 48f
4:18pm 3
mph
990mb 46f 48f
4:12pm  -  3 mph 990.1mb 45f 49f
4:06pm 2 3 mph 990.1mb 45f 49f
4:00pm 1 3 mph 990.2mb 45f 49f
3:36pm 2 3 mph 990.1mb 46f 48f
3:30pm 3 5 mph 990mb 46f 48f
3:24pm  -  2 mph 990.1mb 46f 48f
3:18pm 1 3 mph 990.4mb 46f 48f
3:12pm  -  3 mph 990.4mb 46f 48f
3:06pm 2 5 mph 990.2mb 46f 48f
3:00pm 2 5 mph 990.1mb 46f 48f
2:36pm  -  1 mph 990.1mb 46f 48f
2:30pm  -  3 mph 990.2mb 45f 47f
2:24pm 1 2 mph 990.3mb 45f 49f
2:18pm 1 2 mph 990.6mb 45f 49f
2:12pm  -  1 mph 990.7mb 45f 49f
2:06pm  -  2 mph 990.7mb 45f 49f
2:00pm 2 3 mph 990.6mb 45f 48f
1:36pm 1 6 mph 990.7mb 45f 48f
1:30pm 6 7 mph 990.7mb 45f 48f
1:24pm 5 7 mph 990.6mb 45f 47f
1:18pm 7 10 mph 990.8mb 45f 47f
1:12pm 9 11 mph 990.5mb 45f 47f
1:06pm 9 11 mph 990.2mb 45f 47f
1:00pm 5 6 mph 990.1mb 45f 47f
12:36pm 6 9 mph 990.2mb 45f 47f
12:30pm 5 7 mph 990.3mb 45f 48f
12:24pm  -  2 mph 990.4mb 45f 48f
12:18pm 2 5 mph 990.4mb 45f 47f
12:12pm  -  6 mph 990.4mb 45f 48f
12:06pm 8 11 mph 990.3mb 45f 47f
12:00pm 5 6 mph 990mb 45f 47f
11:36am 3 5 mph 989.9mb 45f 48f
11:30am 3 7 mph 990.1mb 45f 47f
11:24am 7 10 mph 989.9mb 45f 47f
11:18am 5 8 mph 990.2mb 45f 48f
11:12am 2 7 mph 989.8mb 45f 48f
11:06am 7
mph
989.6mb 45f 47f
11:00am 5
mph
989.6mb 45f 48f
10:36am 3 6 mph 989.5mb 45f 48f
10:30am 3 8 mph 989.4mb 45f 48f
10:24am 6 9 mph 989mb 45f 48f
10:18am 8 10 mph 989.1mb 45f 48f
10:12am 3 6 mph 989.4mb 46f 48f
10:06am 5 6 mph 989.3mb 45f 48f
10:00am 6 8 mph 988.8mb 45f 48f
9:36am 7 10 mph 988.8mb 45f 48f
9:30am 3 8 mph 988.5mb 45f 48f
9:24am 6 8 mph 988.5mb 45f 48f
9:18am 8 10 mph 989mb 45f 47f
9:12am 2 5 mph 988.4mb 45f 47f
9:06am 1 7 mph 987.9mb 45f 47f
9:00am 3 9 mph 987.9mb 45f 47f
8:36am 5 7 mph 988.3mb 45f 46f
8:30am 5 10 mph 988.2mb 45f 46f
8:24am 11 14 mph 988.3mb 45f 46f
8:18am 5 6 mph 988.3mb 45f 46f
8:12am 5 7 mph 988.1mb 45f 46f
8:06am 5 6 mph 988.3mb 45f 46f
8:00am 3 6 mph 988.7mb 45f 46f
7:36am 2 7 mph 989mb 45f 46f
7:30am 7 9 mph 989.3mb 45f 46f
7:24am 7 8 mph 989.2mb 45f 45f
7:18am 5 6 mph 989mb 45f 45f
7:12am 3 7 mph 988.7mb 45f 46f
7:06am 6 7 mph 988.6mb 45f 45f
7:00am 6 9 mph 988.9mb 45f 45f
6:36am 6 9 mph 989.5mb 45f 45f
6:30am 5 8 mph 989.6mb 45f 46f
6:24am 5 6 mph 989.8mb 45f 45f
6:18am 2 3 mph 990mb 45f 45f
6:12am 6 10 mph 990.7mb 45f 44f
6:06am 5 6 mph 990.9mb 45f 44f
6:00am 2 5 mph 991.1mb 45f 45f
5:36am 3 6 mph 991mb 45f 45f
5:30am 5 6 mph 990.9mb 45f 46f
5:24am  -  2 mph 991.1mb 45f 45f
5:18am 3 7 mph 991.4mb 45f 45f
5:12am 2 5 mph 991.5mb 46f 46f
5:06am 3 5 mph 991.7mb 46f 46f
5:00am 3 6 mph 991.8mb 46f 45f
4:36am 5 6 mph 992.3mb 46f 46f
4:30am 5 6 mph 992.3mb 46f 45f
4:24am 3 6 mph 992.3mb 46f 46f
4:18am 8 13 mph 992.4mb 46f 46f
4:12am 3 5 mph 991.9mb 46f 47f
4:06am 2 5 mph 992.2mb 46f 46f
4:00am 3 6 mph 992.3mb 46f 47f
3:36am 3 6 mph 991.9mb 46f 46f
3:30am 2 8 mph 992.2mb 46f 47f
3:24am 2 6 mph 992.4mb 46f 47f
3:18am 9 13 mph 992.8mb 46f 48f
3:12am 5 7 mph 992.8mb 46f 46f
3:06am 2 3 mph 992.9mb 46f 47f
3:00am 2 5 mph 993.3mb 46f 47f
2:36am 6 7 mph 992.6mb 46f 47f
2:30am 3 6 mph 992.7mb 46f 48f
2:24am 5 8 mph 992.9mb 46f 48f
2:18am 6 11 mph 992.9mb 46f 49f
2:12am 3 9 mph 992.7mb 46f 50f
2:06am 5 14 mph 993.1mb 46f 50f
2:00am 13 16 mph 992.7mb 46f 51f
1:36am 3 10 mph 992.9mb 45f 50f
1:30am 5 7 mph 992.8mb 45f 50f
1:24am 6 13 mph 992.6mb 45f 51f
1:18am 6 13 mph 992.4mb 45f 51f
1:12am 8 23 mph 992.6mb 45f 50f
1:06am 20 24 mph 992.6mb 45f 53f
1:00am 17 24 mph 992.8mb 45f 53f
12:36am 6 8 mph 993.2mb 45f 51f
12:30am 6 11 mph 993.5mb 45f 51f
12:24am 9 11 mph 993.6mb 45f 51f
12:18am 8 11 mph 993.4mb 45f 51f
12:12am 3 14 mph 992.9mb 45f 51f
12:06am 13 14 mph 992.4mb 46f 51f
12:00am 6 8 mph 993mb 46f 50f
Tue 01/17 11:54pm 7 9 mph 993.1mb 46f 51f
11:48pm 8 13 mph 993.1mb 46f 51f
11:36pm 10 15 mph 993.3mb 46f 53f
11:30pm 10 26 mph 993.4mb 46f 55f
11:24pm 3 18 mph 993mb 46f 53f
11:18pm 13 21 mph 993.3mb 46f 54f
11:12pm 15 22 mph 992.8mb 46f 53f
11:06pm 21 26 mph 993.2mb 46f 53f
11:00pm 16 23 mph 993.1mb 46f 52f
10:54pm 17 25 mph 993.3mb 46f 53f
10:48pm 17 24 mph 993.1mb 46f 53f
10:36pm 21 26 mph 992.9mb 46f 51f
10:30pm 13 16 mph 993mb 46f 50f
10:24pm 3 5 mph 992.5mb 46f 52f
10:18pm 5 8 mph 992.5mb 46f 52f
10:12pm 8 9 mph 992.8mb 46f 50f
10:06pm 5 8 mph 992.8mb 46f 50f
10:00pm 6 10 mph - - -
9:54pm 9 10 mph 993.7mb 46f 50f
9:48pm 8 13 mph 993.9mb 46f 51f
9:36pm 8 10 mph 993.7mb 46f 53f
9:30pm 7 13 mph 993.8mb 46f 53f
9:24pm 9 13 mph 994.1mb 46f 53f
9:18pm 8 14 mph 993.6mb 46f 54f
9:12pm 7 13 mph 993.5mb 46f 54f
9:06pm 8 13 mph 993.7mb 46f 53f
9:00pm 6 21 mph 993.8mb 46f 52f
8:54pm 11 21 mph 993.5mb 46f 51f
8:48pm 6 10 mph 993.3mb 46f 55f
8:36pm 5 11 mph 993.3mb 46f 51f
8:30pm 8 10 mph 993mb 46f 51f
8:24pm 5 8 mph 993.2mb 46f 51f
8:18pm 6 9 mph 993.1mb 46f 51f
8:12pm 3 8 mph 993mb 46f 52f
8:06pm 2 11 mph 993mb 46f 54f
8:00pm 11 22 mph 992.9mb 46f 55f
7:54pm 3 11 mph 992.7mb 46f 53f
7:48pm 8 17 mph 992.8mb 46f 54f
7:36pm 9 14 mph 992.9mb 46f 54f
7:30pm 8 13 mph 992.6mb 46f 54f
7:24pm 7 14 mph 992.8mb 46f 53f
7:18pm 8 15 mph 992.6mb 46f 53f
7:12pm 7 17 mph 992.9mb 46f 54f
7:06pm 10 14 mph 992.6mb 46f 53f
7:00pm 10 17 mph 992.7mb 46f 52f
6:54pm 5 11 mph 992.6mb 46f 52f
6:48pm 9 15 mph 992.5mb 45f 51f
6:36pm 10 15 mph 992.7mb 45f 52f
6:30pm 9 14 mph 992.8mb 45f 51f
6:24pm 8 16 mph 992.8mb 45f 50f
6:18pm 10 24 mph 992.9mb 45f 52f
6:12pm 9 21 mph 992.7mb 45f 49f
6:06pm 6 9 mph 992.8mb 45f 48f
6:00pm 7 11 mph 993.2mb 45f 47f
5:54pm 9 14 mph 992.9mb 45f 47f
5:48pm 2 8 mph 992.8mb 45f 47f
5:36pm 2 6 mph 993.2mb 45f 46f
5:30pm 2 7 mph 993.3mb 45f 47f
5:24pm 8 11 mph 993.8mb 45f 46f
5:18pm 5 6 mph 993.6mb 45f 47f
5:12pm 2 5 mph 993.4mb 45f 46f
5:06pm 3 9 mph 993.8mb 45f 46f
5:00pm 6 10 mph 993.9mb 45f 46f
4:54pm 6 11 mph 993.9mb 45f 46f
4:48pm 3 6 mph 994mb 45f 46f
4:36pm 1 7 mph 994mb 45f 46f
4:30pm 5 7 mph 994.2mb 45f 46f
4:24pm 3 6 mph 994.4mb 45f 46f
4:18pm 2 8 mph 995mb 45f 46f
4:12pm 2 8 mph 995.1mb 45f 46f
4:06pm 3 6 mph 995mb 45f 47f
4:00pm 5 7 mph 995mb 45f 47f
3:54pm 1 5 mph 995.1mb 45f 47f
3:48pm 1 11 mph 995.3mb 45f 47f
3:36pm 6 10 mph 996mb 45f 47f
3:30pm 6 8 mph 995.4mb 45f 46f
3:24pm 2 7 mph 995.7mb 45f 46f
3:18pm 2 6 mph 995.4mb 45f 46f
3:12pm 6 7 mph 995mb 45f 47f
3:06pm 3 6 mph 995.7mb 45f 47f
3:00pm 5 8 mph 996.4mb 45f 47f
2:54pm 1 5 mph 996.4mb 45f 47f
2:48pm 5 7 mph 996.5mb 45f 47f
2:36pm 2 3 mph 997.2mb 45f 47f
2:30pm 1 2 mph 997.5mb 45f 47f
2:24pm 2 6 mph 997.7mb 45f 47f
2:18pm 2 6 mph 997.7mb 45f 47f
2:12pm 3 5 mph 997.8mb 45f 47f
2:06pm 2 7 mph 998.2mb 45f 47f
2:00pm 5 7 mph 998mb 45f 47f
1:54pm 1 2 mph 998.5mb 45f 48f
1:48pm  -  3 mph 998.6mb 45f 48f
1:36pm 2 6 mph 999.3mb 45f 47f
1:30pm 2 3 mph 999.6mb 45f 48f
1:24pm 2 6 mph 999.4mb 45f 47f
1:18pm 2 7 mph 999.8mb 45f 48f
1:12pm 5 6 mph 999.9mb 45f 48f
1:06pm 2 6 mph 1000.3mb 45f 48f
1:00pm 5 6 mph 1000.2mb 45f 48f
12:54pm 3 5 mph 1000.6mb 45f 48f
12:48pm 5 9 mph 1000.9mb 45f 49f
12:36pm 6 10 mph 1001.5mb 45f 47f
12:30pm 7 9 mph 1001.6mb 45f 47f
12:24pm 7 9 mph 1001.8mb 45f 47f
12:18pm 9 11 mph 1001.7mb 45f 47f
12:12pm 3 8 mph 1002.1mb 45f 47f
12:06pm 8 9 mph 1002.1mb 45f 48f
12:00pm 7 9 mph 1002.1mb 45f 48f
11:54am 2 6 mph 1002.1mb 45f 48f
11:48am 5 7 mph 1002.5mb 45f 49f
11:36am 2 6 mph 1002.3mb 45f 49f
11:30am 2 6 mph 1002.5mb 45f 49f
11:24am 3 5 mph 1002.4mb 45f 51f
11:18am 2 5 mph 1002.6mb 45f 51f
11:12am 1 5 mph 1002.8mb 45f 49f
11:06am 2 7 mph 1002.9mb 45f 48f
11:00am 2 7 mph 1003.2mb 45f 48f
10:54am 5 8 mph 1003mb 45f 47f
10:48am 6 8 mph 1003.7mb 45f 47f
10:36am 5 7 mph 1003mb 45f 47f
10:30am 6 8 mph 1003.2mb 45f 47f
10:24am 3 8 mph 1002.7mb 45f 47f
10:18am 7 10 mph 1003.1mb 45f 46f
10:12am 5 10 mph 1002.5mb 45f 45f
10:06am 8 9 mph 1003mb 45f 45f
10:00am 3 6 mph 1002.4mb 45f 45f
9:54am 6 8 mph 1002.9mb 45f 44f
9:48am 3 9 mph 1002.5mb 45f 44f
9:36am 2 7 mph 1001.9mb 45f 43f
9:30am 3 8 mph 1002.2mb 45f 44f
9:24am 3 10 mph 1002.4mb 45f 44f
9:18am 8 11 mph 1001.8mb 45f 44f
9:12am 6 9 mph 1002.1mb 45f 43f
9:06am 5 8 mph 1002.1mb 45f 43f
9:00am 6 7 mph 1002.1mb 45f 42f
8:54am 3 6 mph 1002mb 45f 43f
8:48am 3 8 mph 1002.4mb 45f 42f
8:36am 7 9 mph 1002.3mb 45f 42f
8:30am 6 7 mph 1002mb 45f 42f
8:24am 3 6 mph 1002.3mb 45f 42f
8:18am 6 13 mph 1001.7mb 45f 42f
8:12am 5 10 mph 1001.9mb 45f 42f
8:06am 5 13 mph 1002.1mb 45f 42f
8:00am 6 8 mph 1002.3mb 45f 41f
7:54am 6 8 mph 1002.2mb 45f 41f
7:48am 5 8 mph 1002mb 45f 41f
7:36am 6 9 mph 1002.2mb 45f 40f
7:30am 6 9 mph 1002mb 45f 41f
7:24am 8 9 mph 1002.1mb 45f 41f
7:18am 7 9 mph 1002.6mb 45f 41f
7:12am 6 9 mph 1002.6mb 45f 41f
7:06am 7 11 mph 1002.8mb 45f 41f
7:00am 8 13 mph 1002.8mb 45f 41f
6:54am 6 10 mph 1003mb 45f 41f
6:48am 7 10 mph 1003.2mb 45f 41f
6:36am 9 17 mph 1003.8mb 45f 40f
6:30am 7 13 mph 1003.3mb 45f 40f
6:24am 9 14 mph 1003.5mb 45f 40f
6:18am 5 11 mph 1003.6mb 45f 39f
6:12am 10 11 mph 1003.9mb 45f 38f
6:06am 6 9 mph 1003.9mb 45f 38f
6:00am 1 11 mph 1003.9mb 45f 39f
5:54am 8 10 mph 1004.6mb 45f 39f
5:48am 5 8 mph 1004.7mb 45f 39f
5:36am 7 9 mph 1005.1mb 45f 39f
5:30am 8 17 mph 1005.6mb 45f 39f
5:24am 2 3 mph 1005.2mb 45f 39f
5:18am 3 10 mph 1005.8mb 45f 39f
5:12am 6 8 mph 1005.9mb 45f 39f
5:06am 5 7 mph 1005.9mb 45f 39f
5:00am 7 10 mph 1006.4mb 45f 39f
4:54am 6 9 mph 1006.4mb 45f 39f
4:48am 5 6 mph 1006.8mb 45f 40f
4:36am 7 9 mph 1007.1mb 45f 39f
4:30am 6 9 mph 1007.4mb 45f 38f
4:24am 2 6 mph 1006.9mb 45f 40f
4:18am 5 6 mph 1006.9mb 45f 41f
4:12am 2 3 mph 1006.9mb 45f 39f
4:06am 5 6 mph 1006.8mb 45f 40f
4:00am 5 11 mph 1007.4mb 45f 39f
3:54am 8 10 mph 1007.5mb 45f 39f
3:48am 3 6 mph 1007.8mb 45f 40f
3:36am 5 6 mph 1008.2mb 45f 39f
3:30am 3 5 mph 1008.5mb 45f 40f
3:24am 3 7 mph 1008.5mb 45f 40f
3:18am 7 8 mph 1008.9mb 45f 40f
3:12am 5 7 mph 1008.7mb 45f 40f
3:06am 5 6 mph 1009.1mb 45f 40f
3:00am 7 11 mph 1009.4mb 45f 40f
2:54am 7 8 mph 1009.6mb 45f 40f
2:48am 7 8 mph 1009.8mb 45f 41f
2:36am 7 9 mph 1009.7mb 45f 40f
2:30am 8 10 mph 1009.7mb 45f 39f
2:24am 7 8 mph 1009.7mb 45f 40f
2:18am 8 10 mph 1009.6mb 45f 40f
2:12am 8 9 mph 1009.7mb 45f 40f
2:06am 7 8 mph 1009.8mb 45f 40f
2:00am 6 8 mph 1009.8mb 45f 41f
1:54am 7 9 mph 1009.8mb 45f 40f
1:48am 7 9 mph 1009.6mb 45f 40f
1:36am 8 9 mph 1009.9mb 45f 40f
1:30am 7 8 mph 1009.9mb 45f 40f
1:24am 7 8 mph 1010mb 45f 40f
1:18am 8 9 mph 1010mb 45f 40f
1:12am 6 9 mph 1009.9mb 45f 40f
1:06am 6 8 mph 1009.8mb 45f 40f
1:00am 7 8 mph 1010mb 45f 40f
12:54am 5 7 mph 1010.1mb 45f 40f
12:48am 6 8 mph 1010.2mb 45f 40f
12:36am 6 7 mph 1010.3mb 45f 40f
12:30am 7 9 mph 1010.5mb 45f 40f
12:24am 7 8 mph 1010.4mb 45f 40f
12:18am 3 5 mph 1010.3mb 45f 40f
12:12am 2 3 mph 1010.3mb 45f 40f
12:06am 5 7 mph 1010.5mb 45f 39f
12:00am 6 7 mph 1010.4mb 45f 40f
Mon 01/16 11:54pm 6 7 mph 1010.4mb 45f 39f
11:48pm 6 7 mph 1010.6mb 45f 39f
11:36pm 6 8 mph 1010.7mb 45f 39f
11:30pm 7 8 mph 1010.7mb 45f 39f
11:24pm 6 8 mph 1010.8mb 45f 39f
11:18pm 6 8 mph 1010.9mb 45f 39f
11:12pm 7 9 mph 1010.8mb 45f 38f
11:06pm 3 5 mph 1010.7mb 45f 38f
11:00pm 3 6 mph 1010.8mb 45f 41f
10:54pm 7 8 mph 1011mb 45f 39f
10:48pm 7 8 mph 1011mb 45f 39f
10:36pm 6 8 mph 1011.2mb 45f 39f
10:30pm 6 8 mph 1011.1mb 45f 39f
10:24pm 6 8 mph 1011.2mb 45f 38f
10:18pm 6 7 mph 1011.4mb 45f 39f
10:12pm 7 8 mph 1011.5mb 45f 39f
10:06pm 6
mph
1011.6mb 45f 39f
10:00pm 3 8 mph 1011.6mb 45f 38f
9:54pm 6 7 mph 1012mb 45f 38f
9:48pm 5 6 mph 1011.9mb 45f 38f
9:36pm 6 7 mph 1012.1mb 45f 38f
9:30pm 2 5 mph 1012.3mb 45f 39f
9:24pm 5 6 mph 1012.6mb 45f 39f
9:18pm 5 7 mph 1012.6mb 45f 39f
9:12pm 5 6 mph 1012.6mb 45f 39f
9:06pm 5 6 mph 1012.9mb 45f 39f
9:00pm 6
mph
1013mb 45f 39f
8:54pm 1 6 mph 1013.1mb 45f 39f
8:48pm 3 6 mph 1013.4mb 45f 39f
8:36pm 3
mph
1013.3mb 45f 39f
8:30pm 2 3 mph 1013.5mb 45f 39f
8:24pm 2 3 mph 1013.4mb 45f 39f
8:18pm 3 5 mph 1013.6mb 45f 40f
8:12pm 1 6 mph 1013.5mb 45f 40f
8:06pm 5 6 mph 1013.3mb 45f 39f
8:00pm 5 6 mph 1013.4mb 45f 40f
7:54pm 3 6 mph 1013.6mb 45f 40f
7:48pm 5
mph
1013.5mb 45f 40f
7:36pm  -  3 mph 1013.7mb 45f 41f
7:30pm 2 3 mph 1013.8mb 45f 41f
7:24pm 3 6 mph 1013.6mb 45f 40f
7:18pm 5 6 mph 1013.7mb 45f 40f
7:12pm 3 5 mph 1014mb 45f 41f
7:06pm 3 5 mph 1014mb 45f 41f
7:00pm 3 5 mph 1014.2mb 45f 41f
6:54pm 2 6 mph 1014.1mb 45f 41f
6:48pm 6 7 mph 1014.4mb 45f 42f
6:36pm 5 6 mph 1014.9mb 45f 42f
6:30pm 5 9 mph 1015mb 45f 42f
6:24pm 6 8 mph 1014.9mb 45f 42f
6:18pm 6 7 mph 1014.9mb 45f 42f
6:12pm 6 7 mph 1014.8mb 45f 42f
6:06pm 5 8 mph 1014.9mb 45f 43f
6:00pm 6 9 mph 1014.9mb 45f 43f
5:54pm 6 10 mph 1014.9mb 45f 43f
5:48pm 7 10 mph 1014.7mb 45f 43f
5:36pm 7 10 mph 1014.7mb 45f 43f
5:30pm 7 10 mph 1014.6mb 45f 43f
5:24pm 7 10 mph 1014.5mb 45f 43f
5:18pm 5 7 mph 1014.3mb 45f 43f
5:12pm 5 7 mph 1014.4mb 45f 43f
5:06pm 3 5 mph 1014.1mb 45f 42f
5:00pm 1 7 mph 1013.8mb 45f 43f
4:54pm 2 5 mph 1013.8mb 45f 43f
4:48pm 3 6 mph 1013.7mb 45f 43f
4:36pm 3 6 mph 1012.9mb 45f 43f
4:30pm 5 6 mph 1013.7mb 45f 43f
4:24pm 5 6 mph 1013.8mb 45f 43f
4:18pm 5 6 mph 1013.9mb 45f 43f
4:12pm 3 7 mph 1013.9mb 45f 43f
4:06pm 2 6 mph 1014.1mb 45f 43f
4:00pm 5 6 mph 1014.3mb 45f 43f
3:36pm 5 10 mph 1015.3mb 45f 43f
3:30pm 8 14 mph 1015.6mb 45f 43f
3:24pm 10 13 mph 1015.5mb 45f 43f
3:18pm 9 13 mph 1015.4mb 45f 43f
3:12pm 6 8 mph 1015.3mb 45f 43f
3:06pm 6 8 mph 1015.2mb 45f 43f
3:00pm 6 8 mph 1015.3mb 45f 43f
2:54pm 7 9 mph 1015.3mb 45f 43f
2:48pm 9 11 mph 1015.3mb 45f 43f
2:36pm 10 14 mph 1015.5mb 45f 43f
2:30pm 9 14 mph 1015.7mb 45f 43f
2:24pm 10 15 mph 1015.8mb 45f 43f
2:18pm 9 11 mph 1015.9mb 45f 43f
2:12pm 8 10 mph 1015.9mb 45f 43f
2:06pm 7 9 mph 1016mb 45f 43f
2:00pm 5 7 mph 1016mb 45f 43f
1:54pm 6 8 mph 1016.1mb 45f 43f
1:48pm 6 7 mph 1016.2mb 45f 43f
1:36pm 6 7 mph 1016.5mb 45f 43f
1:30pm 6 8 mph 1016.7mb 45f 43f
1:24pm 6 9 mph 1016.9mb 45f 43f
1:18pm 6 10 mph 1017mb 45f 42f
1:12pm 8 13 mph 1017.1mb 45f 42f
1:06pm 8 11 mph 1017.2mb 45f 42f
1:00pm 7 9 mph 1017.3mb 45f 42f
12:54pm 9 11 mph 1017.5mb 45f 42f
12:48pm 9 11 mph 1017.4mb 45f 42f
12:36pm 9 11 mph 1018.1mb 45f 42f
12:30pm 8 10 mph 1018.2mb 45f 41f
12:24pm 7 13 mph 1018.3mb 45f 42f
12:18pm 10 13 mph 1018.4mb 45f 42f
12:12pm 9 10 mph 1018.4mb 45f 42f
12:06pm 8 10 mph 1018.6mb 45f 41f
12:00pm 8 10 mph 1018.8mb 45f 41f
11:54am 8 9 mph 1019.1mb 45f 41f
11:48am 7 9 mph 1019.2mb 45f 41f
11:36am 5 6 mph 1019.3mb 45f 42f
11:30am 2 5 mph 1019.1mb 45f 42f
11:24am 5 7 mph 1019.4mb 45f 42f
11:18am 3 7 mph 1019.5mb 45f 41f
11:12am 6 8 mph 1019.6mb 45f 41f
11:06am 5 7 mph 1019.8mb 45f 41f
11:00am 6 8 mph 1019.8mb 45f 41f
10:54am 5 7 mph 1019.9mb 45f 41f
10:48am 5 6 mph 1019.9mb 45f 41f
10:36am 3 5 mph 1020.1mb 45f 40f
10:30am 1 2 mph 1020.1mb 45f 40f
10:24am  -  1 mph 1020mb 45f 42f
10:18am 1 2 mph 1020.1mb 45f 40f
10:12am 2 3 mph 1019.9mb 45f 39f
10:06am 2
mph
1019.9mb 45f 39f
10:00am 1 3 mph 1020.1mb 45f 39f
9:54am 2 3 mph 1020.2mb 45f 38f
9:48am 2
mph
1020.3mb 45f 38f
9:36am 3
mph
1020.5mb 45f 37f
9:30am 3 6 mph 1020.6mb 45f 37f
9:24am 3 7 mph 1020.7mb 45f 37f
9:18am 5 7 mph 1020.9mb 45f 37f
9:12am 6 8 mph 1021mb 45f 37f
9:06am 6 7 mph 1021.1mb 45f 37f
9:00am 7 8 mph 1021mb 45f 37f
8:54am 6 7 mph 1021.1mb 45f 37f
8:48am 6
mph
1021mb 45f 37f
8:36am 2 6 mph 1020.8mb 45f 37f
8:30am 6
mph
1020.8mb 45f 36f
8:24am 6 8 mph 1020.7mb 45f 36f
8:18am 7 8 mph 1020.6mb 45f 36f
8:12am 6 8 mph 1020.9mb 45f 36f
8:06am 6 8 mph 1021mb 45f 36f
8:00am 7
mph
1021.2mb 45f 36f
7:54am 6 8 mph 1021.3mb 45f 36f
7:48am 7
mph
1021.3mb 45f 36f
7:36am 6 7 mph 1021.5mb 45f 36f
7:30am 6 9 mph 1021.5mb 45f 36f
7:24am 6 8 mph 1021.4mb 45f 35f
7:18am 5 6 mph 1021.4mb 45f 35f
7:12am 5 6 mph 1021.6mb 45f 35f
7:06am 5
mph
1021.6mb 45f 35f
7:00am 2 5 mph 1021.6mb 45f 35f
6:54am 2 3 mph 1021.6mb 45f 36f
6:48am 3 5 mph 1021.7mb 45f 35f
6:36am 5 6 mph 1021.9mb 45f 36f
6:30am 3 6 mph 1022.1mb 45f 36f
6:24am 2 6 mph 1022.3mb 45f 36f
6:18am 3 7 mph 1022.4mb 45f 36f
6:12am 7 8 mph 1022.5mb 45f 36f
6:06am 7 8 mph 1022.6mb 45f 36f
6:00am 7 8 mph 1022.7mb 45f 35f
5:54am 7 8 mph 1022.5mb 45f 35f
5:48am 8 9 mph 1022.6mb 45f 35f
5:36am 7 8 mph 1022.5mb 45f 35f
5:30am 7 8 mph 1022.7mb 45f 35f
5:24am 8 10 mph 1022.8mb 45f 35f
5:18am 8 10 mph 1023.2mb 45f 36f
5:12am 8 9 mph 1023.1mb 45f 36f
5:06am 8
mph
1023.2mb 45f 35f
5:00am 7 8 mph 1023.1mb 45f 35f
4:54am 7 9 mph 1023.1mb 45f 35f
4:48am 8
mph
1023mb 45f 35f
4:36am 7 8 mph 1023.1mb 45f 35f
4:30am 5 6 mph 1023mb 45f 35f
4:24am 6 7 mph 1023.2mb 45f 35f
4:18am 6 7 mph 1023.4mb 45f 35f
4:12am 7 8 mph 1023.6mb 45f 35f
4:06am 7 8 mph 1023.6mb 45f 34f
4:00am 6 7 mph 1023.6mb 45f 34f
3:54am 6
mph
1023.6mb 45f 34f
3:48am 5 6 mph 1023.6mb 45f 34f
3:36am 5 7 mph 1023.8mb 45f 34f
3:30am 3 6 mph 1023.6mb 45f 34f
3:24am 5 7 mph 1023.7mb 45f 34f
3:18am 6 7 mph 1023.8mb 45f 35f
3:12am 6 8 mph 1023.9mb 45f 35f
3:06am 6 8 mph 1023.9mb 45f 34f
3:00am 5 6 mph 1023.8mb 45f 34f
2:54am 5 6 mph 1023.8mb 45f 34f
2:48am 6 8 mph 1023.9mb 45f 34f
2:36am 6 7 mph 1024.2mb 45f 34f
2:30am 7 8 mph 1024.6mb 45f 35f
2:24am 7 8 mph 1024.4mb 45f 34f
2:18am 6 7 mph 1024.6mb 45f 34f
2:12am 7 8 mph 1024.5mb 45f 34f
2:06am 6 8 mph 1024.5mb 45f 34f
2:00am 5 7 mph 1024.4mb 45f 34f
1:54am 6 7 mph 1024.4mb 45f 34f
1:48am 6 7 mph 1024.1mb 45f 34f
1:36am 5 6 mph 1023.9mb 45f 34f
1:30am 5 6 mph 1024mb 45f 34f
1:24am 5 6 mph 1024mb 45f 35f
1:18am 5 6 mph 1024.1mb 45f 34f
1:12am 3 6 mph 1024mb 45f 34f
1:06am 3 6 mph 1024.1mb 45f 34f
1:00am 5 6 mph 1024.4mb 45f 34f
12:54am 5 8 mph 1024.5mb 45f 34f
12:48am 6 8 mph 1024.7mb 45f 34f
12:36am 2 3 mph 1024.8mb 45f 34f
12:30am 3 6 mph 1024.9mb 45f 34f
12:24am 5 6 mph 1024.9mb 45f 35f
12:18am 5 6 mph 1024.9mb 45f 35f
12:12am 5 6 mph 1025mb 45f 35f
12:06am 5 6 mph 1025.1mb 45f 35f
12:00am 3 5 mph 1025.1mb 45f 35f
Sun 01/15 11:54pm 5 6 mph 1025.4mb 45f 35f
11:48pm 5
mph
1025.4mb 45f 35f
11:36pm 5 6 mph 1025.3mb 45f 35f
11:30pm 5 6 mph 1025.4mb 45f 35f
11:24pm 5 6 mph 1025.3mb 45f 35f
11:18pm 3 5 mph 1025.2mb 45f 35f
11:12pm 5 6 mph 1025.5mb 45f 36f
11:06pm 6
mph
1025.5mb 45f 35f
11:00pm 3 5 mph 1025.3mb 45f 35f
10:54pm 5 6 mph 1025.4mb 45f 36f
10:48pm 6 7 mph 1025.6mb 45f 36f
10:36pm 6 7 mph 1025.7mb 45f 35f
10:30pm 6 7 mph 1025.5mb 45f 35f
10:24pm 5 6 mph 1025.6mb 45f 35f
10:18pm 6 7 mph 1025.8mb 45f 35f
10:12pm 6 8 mph 1026mb 45f 35f
10:06pm 7 9 mph 1026mb 45f 35f
10:00pm 6 7 mph 1026mb 45f 35f
9:54pm 6 7 mph 1026mb 45f 35f
9:48pm 7 9 mph 1026mb 45f 35f
9:36pm 5 6 mph 1025.8mb 45f 35f
9:30pm 6 7 mph 1026mb 45f 35f
9:24pm 7 9 mph 1026.1mb 45f 35f
9:18pm 7 9 mph 1026mb 45f 35f
9:12pm 7 9 mph 1026mb 45f 35f
9:06pm 8 9 mph 1026.2mb 45f 36f
9:00pm 8 9 mph 1026.2mb 45f 36f
8:54pm 6 8 mph 1026.1mb 45f 36f
8:48pm 7 8 mph 1026.1mb 45f 36f
8:36pm 6 8 mph 1025.8mb 45f 35f
8:30pm 6 8 mph 1025.7mb 45f 35f
8:24pm 7 8 mph 1025.6mb 45f 35f
8:18pm 6 9 mph 1025.6mb 45f 35f
8:12pm 7 9 mph 1025.5mb 45f 35f
8:06pm 5 6 mph 1025.4mb 45f 34f
8:00pm 5 7 mph 1025.5mb 45f 35f
7:54pm 6 8 mph 1025.7mb 45f 35f
7:48pm 6 8 mph 1025.6mb 45f 34f
7:36pm 5 6 mph 1025.6mb 45f 34f
7:30pm 5 6 mph 1025.6mb 45f 34f
7:24pm 3 6 mph 1025.8mb 45f 34f
7:18pm 5 6 mph 1025.7mb 45f 34f
7:12pm 3 6 mph 1025.7mb 45f 34f
7:06pm 5 7 mph 1025.7mb 45f 34f
7:00pm 5 6 mph 1025.7mb 45f 34f
6:54pm 3 5 mph 1025.5mb 45f 34f
6:48pm 3 5 mph 1025.6mb 45f 34f
6:36pm 3 5 mph 1025.5mb 45f 35f
6:30pm 3 5 mph 1025.3mb 45f 34f
6:24pm 3 5 mph 1025.2mb 45f 35f
6:18pm 3 5 mph 1025.2mb 45f 35f
6:12pm 5
mph
1025.1mb 45f 35f
6:06pm 5 6 mph 1025.2mb 45f 35f
6:00pm 5 6 mph 1025.1mb 45f 35f
5:54pm 5 6 mph 1025mb 45f 35f
5:48pm 3
mph
1025mb 45f 35f
5:36pm 1 3 mph 1025.2mb 45f 35f
5:30pm 2 3 mph 1025.1mb 45f 35f
5:24pm 3 5 mph 1024.9mb 45f 36f
5:18pm 3 5 mph 1025.1mb 45f 36f
5:12pm 5 6 mph 1025.3mb 45f 36f
5:06pm 3 5 mph 1025.4mb 45f 37f
5:00pm 5 6 mph 1025.4mb 45f 37f
4:54pm 5 7 mph 1025.4mb 45f 38f
4:48pm 5 6 mph 1025.5mb 45f 39f
4:36pm 5 6 mph 1025.6mb 45f 41f
4:30pm 5 6 mph 1025.7mb 45f 41f
4:24pm 5 8 mph 1025.7mb 45f 42f
4:18pm 6 8 mph 1025.7mb 45f 42f
4:12pm 6 8 mph 1025.8mb 45f 42f
4:06pm 6
mph
1025.9mb 45f 42f
4:00pm 5 6 mph 1026mb 45f 42f
3:54pm 3 6 mph 1026mb 45f 42f
3:48pm 3 6 mph 1025.9mb 45f 42f
3:36pm 5 6 mph 1026mb 45f 42f
3:30pm 3 6 mph 1026mb 45f 42f
3:24pm 5 6 mph 1025.9mb 45f 42f
3:18pm 5 6 mph 1025.8mb 45f 42f
3:12pm 5 6 mph 1025.8mb 45f 43f
3:06pm 5 6 mph 1025.7mb 45f 42f
3:00pm 5 6 mph 1025.7mb 45f 42f
2:54pm 5 6 mph 1025.7mb 45f 42f
2:48pm 5 6 mph 1025.6mb 45f 43f
2:36pm 5 7 mph 1025.5mb 45f 42f
2:30pm 5 6 mph 1025.5mb 45f 42f
2:24pm 3 6 mph 1025.5mb 45f 42f
2:18pm 2 3 mph 1025.6mb 45f 43f
2:12pm 1 2 mph 1025.6mb 45f 43f
2:06pm 2 3 mph 1025.6mb 45f 44f
2:00pm 1 3 mph 1025.6mb 45f 44f
1:54pm 2 3 mph 1025.7mb 45f 44f
1:48pm 2 3 mph 1025.8mb 45f 43f
1:36pm 5 6 mph 1025.7mb 45f 43f
1:30pm 3 5 mph 1025.7mb 45f 43f
1:24pm 3 5 mph 1025.6mb 45f 43f
1:18pm 3 5 mph 1025.5mb 45f 44f
1:12pm 3 6 mph 1025.5mb 45f 43f
1:06pm 5 6 mph 1025.5mb 45f 43f
1:00pm 5 6 mph 1025.5mb 45f 44f
12:54pm 5 6 mph 1025.5mb 45f 44f
12:48pm 6
mph
1025.5mb 45f 44f
12:36pm 5 6 mph 1025.5mb 45f 45f
12:30pm 5 6 mph 1025.5mb 45f 44f
12:24pm 5
mph
1025.4mb 45f 43f
12:18pm 3 5 mph 1025.5mb 45f 44f
12:12pm 3 6 mph 1025.6mb 45f 44f
12:06pm 5 6 mph 1025.6mb 45f 43f
12:00pm 5 6 mph 1025.7mb 45f 42f
11:54am 5 6 mph 1025.8mb 45f 42f
11:48am 5 7 mph 1025.9mb 45f 42f
11:36am 7 8 mph 1026.1mb 45f 41f
11:30am 7 8 mph 1026.2mb 45f 41f
11:24am 6 8 mph 1026.3mb 45f 41f
11:18am 7 8 mph 1026.5mb 45f 41f
11:12am 5 7 mph 1026.7mb 45f 42f
11:06am 6 7 mph 1026.7mb 45f 41f
11:00am 6 7 mph 1026.7mb 45f 41f
10:54am  -  1 mph 1026.7mb 45f 40f
10:48am 2
mph
1026.6mb 45f 40f
10:36am 1 2 mph 1026.6mb 45f 39f
10:30am 1 2 mph 1026.6mb 45f 40f
10:24am 2 3 mph 1026.6mb 45f 40f
10:18am 3
mph
1026.5mb 45f 39f
10:12am 2 3 mph 1026.4mb 45f 39f
10:06am 3 5 mph 1026.3mb 45f 38f
10:00am 3 6 mph 1026.3mb 45f 37f
9:54am 5 6 mph 1026.3mb 45f 37f
9:48am 5 6 mph 1026.1mb 45f 37f
9:36am 3 5 mph 1026mb 45f 37f
9:30am 5
mph
1025.9mb 45f 37f
9:24am 5 6 mph 1025.7mb 45f 36f
9:18am 5 7 mph 1025.6mb 45f 35f
9:12am 5 7 mph 1025.6mb 45f 34f
9:06am 6 8 mph 1025.5mb 45f 33f
9:00am 6 8 mph 1025.5mb 45f 33f
8:54am 6 8 mph 1025.5mb 45f 32f
8:48am 5 7 mph 1025.5mb 45f 32f